createdAt,value
2022-11-14T00:00:31.901Z,79.41
2022-11-14T00:03:17.270Z,80.16
2022-11-14T00:06:06.796Z,79.63
2022-11-14T00:08:51.752Z,80.18
2022-11-14T00:11:37.135Z,79.76
2022-11-14T00:14:22.477Z,79.75
2022-11-14T00:17:07.670Z,80.34
2022-11-14T00:19:52.965Z,79.65
2022-11-14T00:22:38.233Z,79.90
2022-11-14T00:25:23.837Z,79.40
2022-11-14T00:28:09.023Z,79.38
2022-11-14T00:30:54.144Z,79.91
2022-11-14T00:33:39.500Z,79.72
2022-11-14T00:36:24.604Z,79.78
2022-11-14T00:39:14.408Z,79.97
2022-11-14T00:41:59.550Z,79.94
2022-11-14T00:44:44.655Z,80.46
2022-11-14T00:47:29.822Z,79.64
2022-11-14T00:50:16.803Z,80.81
2022-11-14T00:53:01.857Z,79.69
2022-11-14T00:55:46.917Z,80.23
2022-11-14T00:58:32.498Z,79.71
2022-11-14T01:01:18.045Z,79.71
2022-11-14T01:04:03.433Z,80.33
2022-11-14T01:06:48.511Z,79.66
2022-11-14T01:09:33.979Z,79.85
2022-11-14T01:12:19.198Z,80.04
2022-11-14T01:15:04.806Z,80.10
2022-11-14T01:17:50.208Z,79.71
2022-11-14T01:20:35.324Z,79.84
2022-11-14T01:23:20.574Z,79.60
2022-11-14T01:26:09.477Z,79.62
2022-11-14T01:28:54.713Z,79.92
2022-11-14T01:31:39.714Z,79.44
2022-11-14T01:34:25.299Z,79.05
2022-11-14T01:37:10.273Z,79.29
2022-11-14T01:39:56.414Z,79.28
2022-11-14T01:42:41.529Z,78.81
2022-11-14T01:46:06.012Z,79.28
2022-11-14T01:48:56.853Z,78.56
2022-11-14T01:51:46.594Z,79.15
2022-11-14T01:54:37.994Z,78.63
2022-11-14T01:57:31.209Z,78.55
2022-11-14T02:00:16.515Z,78.11
2022-11-14T02:03:01.901Z,77.70
2022-11-14T02:05:48.683Z,78.50
2022-11-14T02:08:35.150Z,78.73
2022-11-14T02:11:23.235Z,78.43
2022-11-14T02:14:08.644Z,77.54
2022-11-14T02:17:14.809Z,77.62
2022-11-14T02:20:08.009Z,77.45
2022-11-14T02:22:52.887Z,77.94
2022-11-14T02:25:39.882Z,77.52
2022-11-14T02:28:25.902Z,77.58
2022-11-14T02:31:11.191Z,77.87
2022-11-14T02:33:56.349Z,78.01
2022-11-14T02:36:41.377Z,77.54
2022-11-14T02:39:26.739Z,77.46
2022-11-14T02:42:12.004Z,77.57
2022-11-14T02:44:57.533Z,76.76
2022-11-14T02:47:42.514Z,77.71
2022-11-14T02:50:27.713Z,77.78
2022-11-14T02:53:12.849Z,77.38
2022-11-14T02:55:58.071Z,77.40
2022-11-14T02:58:43.541Z,77.46
2022-11-14T03:01:28.579Z,77.25
2022-11-14T03:04:14.521Z,77.01
2022-11-14T03:06:59.787Z,77.06
2022-11-14T03:09:45.056Z,77.12
2022-11-14T03:12:30.870Z,77.75
2022-11-14T03:15:15.992Z,77.42
2022-11-14T03:18:01.062Z,77.96
2022-11-14T03:20:46.315Z,77.02
2022-11-14T03:23:31.815Z,77.40
2022-11-14T03:26:17.269Z,77.79
2022-11-14T03:29:03.000Z,77.30
2022-11-14T03:31:48.567Z,77.28
2022-11-14T03:34:33.688Z,76.71
2022-11-14T03:37:18.887Z,76.63
2022-11-14T03:40:04.937Z,77.57
2022-11-14T03:42:50.089Z,77.15
2022-11-14T03:45:38.353Z,76.78
2022-11-14T03:48:23.673Z,76.95
2022-11-14T03:51:09.208Z,77.07
2022-11-14T03:53:54.137Z,77.25
2022-11-14T03:56:39.148Z,76.48
2022-11-14T03:59:24.688Z,77.17
2022-11-14T04:02:09.673Z,77.19
2022-11-14T04:04:55.056Z,77.36
2022-11-14T04:07:41.181Z,76.76
2022-11-14T04:10:26.636Z,76.87
2022-11-14T04:13:12.070Z,76.81
2022-11-14T04:15:58.263Z,77.20
2022-11-14T04:18:44.077Z,77.33
2022-11-14T04:21:29.595Z,76.93
2022-11-14T04:24:14.795Z,76.91
2022-11-14T04:27:00.105Z,76.57
2022-11-14T04:29:45.152Z,75.77
2022-11-14T04:32:30.509Z,76.41
2022-11-14T04:35:15.881Z,76.08
2022-11-14T04:38:01.516Z,76.10
2022-11-14T04:40:53.855Z,75.78
2022-11-14T04:43:39.937Z,76.35
2022-11-14T04:46:26.576Z,76.10
2022-11-14T04:49:11.629Z,75.72
2022-11-14T04:51:56.778Z,75.55
2022-11-14T04:54:41.769Z,75.13
2022-11-14T04:57:27.399Z,75.85
2022-11-14T05:00:13.017Z,75.45
2022-11-14T05:03:00.899Z,76.14
2022-11-14T05:05:46.810Z,75.96
2022-11-14T05:08:32.887Z,75.47
2022-11-14T05:11:23.103Z,75.37
2022-11-14T05:14:10.459Z,75.54
2022-11-14T05:16:55.746Z,74.81
2022-11-14T05:19:40.685Z,75.20
2022-11-14T05:22:25.746Z,75.21
2022-11-14T05:25:11.638Z,75.14
2022-11-14T05:27:56.770Z,75.47
2022-11-14T05:30:41.788Z,75.41
2022-11-14T05:33:27.114Z,75.80
2022-11-14T05:36:16.714Z,75.39
2022-11-14T05:39:02.084Z,75.48
2022-11-14T05:41:47.619Z,74.65
2022-11-14T05:44:32.697Z,74.53
2022-11-14T05:47:17.939Z,75.04
2022-11-14T05:50:03.880Z,74.85
2022-11-14T05:52:49.286Z,74.32
2022-11-14T05:55:34.420Z,74.75
2022-11-14T05:58:20.014Z,75.48
2022-11-14T06:01:14.595Z,74.86
2022-11-14T06:03:59.934Z,74.33
2022-11-14T06:06:45.523Z,74.80
2022-11-14T06:09:30.934Z,74.86
2022-11-14T06:12:16.320Z,74.00
2022-11-14T06:15:01.458Z,74.18
2022-11-14T06:17:46.669Z,74.24
2022-11-14T06:20:31.663Z,74.53
2022-11-14T06:23:20.622Z,74.19
2022-11-14T06:26:25.391Z,73.72
2022-11-14T06:29:10.978Z,73.45
2022-11-14T06:31:56.236Z,73.48
2022-11-14T06:34:41.763Z,73.26
2022-11-14T06:37:31.390Z,73.65
2022-11-14T06:40:18.898Z,73.65
2022-11-14T06:43:04.030Z,73.36
2022-11-14T06:45:49.331Z,73.17
2022-11-14T06:48:35.741Z,73.98
2022-11-14T06:51:21.495Z,74.03
2022-11-14T06:54:06.707Z,73.37
2022-11-14T06:56:52.011Z,73.27
2022-11-14T06:59:37.254Z,73.20
2022-11-14T07:02:22.347Z,72.94
2022-11-14T07:05:07.731Z,72.93
2022-11-14T07:07:52.619Z,73.01
2022-11-14T07:10:38.145Z,73.05
2022-11-14T07:13:23.301Z,72.64
2022-11-14T07:16:08.457Z,72.37
2022-11-14T07:18:53.746Z,72.61
2022-11-14T07:21:39.932Z,73.30
2022-11-14T07:24:25.258Z,73.31
2022-11-14T07:27:12.989Z,72.94
2022-11-14T07:29:58.006Z,73.21
2022-11-14T07:32:43.125Z,72.82
2022-11-14T07:35:28.123Z,73.46
2022-11-14T07:38:13.041Z,71.76
2022-11-14T07:41:10.112Z,72.37
2022-11-14T07:43:55.323Z,72.33
2022-11-14T07:46:40.386Z,72.42
2022-11-14T07:49:25.796Z,72.76
2022-11-14T07:52:11.106Z,72.35
2022-11-14T07:54:56.182Z,71.75
2022-11-14T07:57:46.463Z,72.32
2022-11-14T08:00:34.141Z,72.17
2022-11-14T08:03:19.282Z,72.11
2022-11-14T08:06:10.458Z,71.81
2022-11-14T08:08:55.886Z,72.64
2022-11-14T08:11:49.760Z,72.88
2022-11-14T08:14:35.120Z,72.77
2022-11-14T08:17:21.661Z,72.29
2022-11-14T08:20:08.968Z,71.72
2022-11-14T08:23:05.416Z,72.05
2022-11-14T08:25:50.799Z,72.23
2022-11-14T08:28:36.033Z,71.73
2022-11-14T08:31:22.295Z,71.07
2022-11-14T08:34:07.720Z,71.38
2022-11-14T08:36:52.614Z,71.78
2022-11-14T08:39:38.129Z,70.31
2022-11-14T08:42:23.168Z,71.07
2022-11-14T08:45:08.609Z,70.51
2022-11-14T08:47:54.405Z,70.36
2022-11-14T08:50:40.006Z,70.83
2022-11-14T08:53:25.475Z,70.35
2022-11-14T08:56:11.381Z,69.49
2022-11-14T08:58:56.844Z,70.65
2022-11-14T09:01:42.622Z,70.17
2022-11-14T09:04:27.695Z,70.01
2022-11-14T09:07:13.288Z,69.76
2022-11-14T09:09:58.426Z,69.60
2022-11-14T09:12:43.472Z,69.75
2022-11-14T09:15:29.595Z,70.55
2022-11-14T09:18:15.428Z,70.07
2022-11-14T09:21:06.556Z,69.81
2022-11-14T09:23:54.216Z,69.60
2022-11-14T09:26:42.621Z,69.49
2022-11-14T09:29:27.946Z,69.67
2022-11-14T09:32:13.186Z,70.15
2022-11-14T09:34:58.392Z,70.01
2022-11-14T09:37:43.399Z,69.43
2022-11-14T09:40:29.183Z,69.62
2022-11-14T09:43:31.993Z,68.59
2022-11-14T09:46:31.584Z,68.01
2022-11-14T09:49:25.642Z,68.20
2022-11-14T09:52:13.373Z,67.87
2022-11-14T09:55:04.163Z,68.48
2022-11-14T09:57:49.490Z,68.36
2022-11-14T10:00:48.550Z,68.70
2022-11-14T10:03:50.565Z,69.22
2022-11-14T10:06:50.016Z,68.52
2022-11-14T10:10:35.753Z,69.33
2022-11-14T10:13:36.959Z,69.00
2022-11-14T10:16:43.226Z,68.88
2022-11-14T10:19:50.680Z,68.64
2022-11-14T10:23:16.639Z,68.13
2022-11-14T10:26:17.337Z,68.14
2022-11-14T10:29:44.651Z,67.83
2022-11-14T10:32:36.371Z,67.45
2022-11-14T10:35:39.577Z,67.48
2022-11-14T10:38:35.723Z,67.33
2022-11-14T10:41:50.043Z,67.64
2022-11-14T10:44:50.593Z,66.23
2022-11-14T10:47:43.623Z,66.89
2022-11-14T10:50:40.405Z,66.59
2022-11-14T10:53:31.515Z,67.47
2022-11-14T10:56:16.465Z,67.27
2022-11-14T10:59:01.619Z,67.04
2022-11-14T11:01:55.704Z,67.48
2022-11-14T11:04:43.203Z,68.02
2022-11-14T11:07:46.680Z,67.75
2022-11-14T11:10:53.451Z,68.21
2022-11-14T11:13:51.623Z,67.82
2022-11-14T11:16:36.748Z,68.59
2022-11-14T11:19:26.623Z,68.00
2022-11-14T11:22:29.551Z,67.10
2022-11-14T11:25:28.828Z,67.87
2022-11-14T11:28:17.753Z,66.94
2022-11-14T11:31:08.608Z,67.30
2022-11-14T11:33:54.362Z,68.97
2022-11-14T11:36:47.065Z,69.00
2022-11-14T11:39:37.631Z,68.76
2022-11-14T11:42:58.696Z,69.41
2022-11-14T11:45:36.841Z,68.99
2022-11-14T11:48:23.744Z,69.29
2022-11-14T11:51:19.955Z,69.11
2022-11-14T11:54:18.498Z,68.49
2022-11-14T11:57:15.911Z,68.56
2022-11-14T12:00:16.387Z,69.23
2022-11-14T12:03:02.085Z,69.18
2022-11-14T12:05:55.404Z,68.53
2022-11-14T12:09:11.523Z,68.86
2022-11-14T12:12:04.872Z,69.19
2022-11-14T12:15:13.317Z,68.50
2022-11-14T12:18:23.921Z,67.57
2022-11-14T12:21:44.087Z,68.34
2022-11-14T12:24:57.048Z,68.45
2022-11-14T12:28:14.251Z,69.32
2022-11-14T12:31:03.543Z,69.03
2022-11-14T12:34:02.391Z,68.48
2022-11-14T12:36:47.959Z,68.96
2022-11-14T12:39:33.404Z,68.86
2022-11-14T12:42:21.381Z,68.98
2022-11-14T12:45:41.285Z,69.90
2022-11-14T12:48:31.973Z,69.34
2022-11-14T12:51:26.693Z,69.46
2022-11-14T12:54:44.785Z,69.51
2022-11-14T12:57:49.768Z,69.64
2022-11-14T13:01:25.984Z,69.47
2022-11-14T13:04:23.632Z,69.89
2022-11-14T13:07:46.116Z,68.95
2022-11-14T13:10:39.802Z,69.36
2022-11-14T13:13:43.698Z,69.58
2022-11-14T13:16:51.601Z,69.27
2022-11-14T13:20:05.452Z,69.28
2022-11-14T13:22:50.831Z,69.40
2022-11-14T13:25:35.863Z,69.03
2022-11-14T13:28:45.476Z,69.63
2022-11-14T13:31:33.291Z,69.75
2022-11-14T13:34:52.198Z,69.32
2022-11-14T13:37:59.030Z,70.25
2022-11-14T13:41:01.057Z,70.02
2022-11-14T13:44:23.809Z,69.30
2022-11-14T13:58:57.123Z,72.24
2022-11-14T14:02:07.321Z,71.13
2022-11-14T14:05:26.425Z,71.05
2022-11-14T14:08:24.164Z,71.04
2022-11-14T14:11:27.896Z,69.67
2022-11-14T14:14:19.171Z,70.01
2022-11-14T14:17:17.793Z,70.40
2022-11-14T14:20:38.329Z,70.74
2022-11-14T14:23:38.343Z,71.63
2022-11-14T14:26:23.984Z,71.30
2022-11-14T14:29:32.407Z,70.70
2022-11-14T14:32:20.174Z,70.76
2022-11-14T14:35:27.302Z,70.00
2022-11-14T14:38:21.681Z,71.04
2022-11-14T14:41:07.316Z,70.46
2022-11-14T14:43:55.528Z,71.58
2022-11-14T14:46:40.867Z,71.46
2022-11-14T14:49:31.202Z,71.19
2022-11-14T14:52:34.099Z,71.63
2022-11-14T14:55:27.377Z,70.94
2022-11-14T14:58:27.394Z,71.23
2022-11-14T15:01:20.092Z,70.54
2022-11-14T15:04:07.999Z,70.63
2022-11-14T15:06:57.234Z,71.41
2022-11-14T15:09:52.955Z,71.03
2022-11-14T15:12:41.052Z,71.72
2022-11-14T15:15:27.327Z,71.55
2022-11-14T15:18:24.416Z,71.70
2022-11-14T15:21:24.860Z,72.65
2022-11-14T15:24:17.823Z,72.67
2022-11-14T15:27:13.031Z,72.71
2022-11-14T15:30:02.301Z,71.84
2022-11-14T15:32:49.558Z,71.94
2022-11-14T15:35:37.243Z,71.76
2022-11-14T15:38:43.109Z,71.19
2022-11-14T15:41:29.690Z,70.94
2022-11-14T15:44:34.075Z,71.35
2022-11-14T15:47:27.362Z,71.83
2022-11-14T15:50:12.452Z,72.25
2022-11-14T15:53:06.717Z,71.35
2022-11-14T15:55:52.199Z,71.48
2022-11-14T15:58:37.533Z,71.26
2022-11-14T16:01:26.000Z,71.17
2022-11-14T16:04:17.069Z,70.66
2022-11-14T16:07:02.363Z,70.70
2022-11-14T16:09:48.640Z,71.27
2022-11-14T16:12:33.818Z,72.04
2022-11-14T16:15:20.371Z,71.82
2022-11-14T16:18:06.236Z,71.28
2022-11-14T16:20:51.859Z,71.61
2022-11-14T16:23:37.179Z,71.55
2022-11-14T16:26:22.439Z,71.62
2022-11-14T16:29:08.157Z,71.68
2022-11-14T16:31:55.265Z,70.67
2022-11-14T16:34:43.664Z,71.32
2022-11-14T16:37:29.002Z,71.35
2022-11-14T16:40:16.287Z,71.66
2022-11-14T16:43:01.699Z,71.58
2022-11-14T16:45:47.708Z,71.79
2022-11-14T16:48:32.884Z,71.87
2022-11-14T16:51:46.034Z,71.71
2022-11-14T16:54:23.276Z,72.18
2022-11-14T16:57:08.527Z,72.13
2022-11-14T16:59:54.241Z,71.75
2022-11-14T17:02:42.763Z,72.16
2022-11-14T17:05:28.320Z,71.94
2022-11-14T17:08:14.466Z,70.68
2022-11-14T17:10:59.796Z,71.63
2022-11-14T17:13:45.275Z,71.56
2022-11-14T17:16:30.333Z,72.34
2022-11-14T17:19:15.577Z,72.52
2022-11-14T17:22:00.847Z,71.31
2022-11-14T17:24:46.164Z,71.71
2022-11-14T17:27:31.283Z,71.75
2022-11-14T17:30:17.861Z,71.28
2022-11-14T17:33:03.083Z,71.98
2022-11-14T17:35:48.249Z,72.70
2022-11-14T17:38:35.317Z,72.65
2022-11-14T17:41:20.722Z,72.76
2022-11-14T17:44:08.228Z,72.59
2022-11-14T17:46:53.748Z,72.64
2022-11-14T17:49:39.127Z,72.05
2022-11-14T17:52:24.302Z,71.55
2022-11-14T17:55:09.545Z,72.55
2022-11-14T17:57:54.778Z,72.60
2022-11-14T18:00:39.757Z,72.19
2022-11-14T18:03:26.408Z,71.56
2022-11-14T18:06:13.851Z,72.06
2022-11-14T18:09:04.823Z,71.82
2022-11-14T18:11:50.517Z,72.00
2022-11-14T18:14:35.835Z,72.33
2022-11-14T18:17:21.519Z,72.73
2022-11-14T18:20:07.755Z,72.40
2022-11-14T18:22:53.255Z,72.19
2022-11-14T18:25:38.307Z,72.37
2022-11-14T18:28:23.598Z,72.93
2022-11-14T18:31:11.113Z,71.60
2022-11-14T18:33:57.072Z,72.12
2022-11-14T18:36:43.088Z,71.37
2022-11-14T18:39:30.472Z,72.37
2022-11-14T18:42:16.082Z,72.10
2022-11-14T18:45:02.007Z,72.64
2022-11-14T18:47:47.628Z,73.05
2022-11-14T18:50:33.162Z,73.25
2022-11-14T18:53:20.321Z,73.10
2022-11-14T18:56:09.700Z,72.91
2022-11-14T18:58:56.283Z,72.82
2022-11-14T19:01:41.778Z,72.16
2022-11-14T19:04:27.558Z,72.64
2022-11-14T19:07:14.331Z,73.11
2022-11-14T19:10:00.043Z,72.88
2022-11-14T19:12:50.570Z,72.58
2022-11-14T19:15:35.996Z,72.60
2022-11-14T19:18:24.038Z,72.63
2022-11-14T19:21:09.147Z,72.92
2022-11-14T19:23:56.028Z,73.85
2022-11-14T19:26:50.885Z,74.08
2022-11-14T19:29:37.977Z,74.39
2022-11-14T19:32:34.464Z,74.13
2022-11-14T19:35:21.030Z,74.34
2022-11-14T19:38:07.711Z,74.18
2022-11-14T19:40:59.645Z,74.81
2022-11-14T19:43:48.356Z,74.76
2022-11-14T19:46:36.748Z,74.79
2022-11-14T19:49:31.921Z,74.56
2022-11-14T19:52:18.526Z,74.38
2022-11-14T19:55:04.332Z,74.57
2022-11-14T19:57:49.711Z,74.21
2022-11-14T20:00:35.435Z,74.55
2022-11-14T20:03:21.331Z,73.79
2022-11-14T20:06:22.170Z,74.01
2022-11-14T20:09:09.430Z,74.60
2022-11-14T20:11:54.680Z,74.85
2022-11-14T20:14:40.148Z,75.12
2022-11-14T20:17:25.774Z,74.33
2022-11-14T20:20:11.048Z,74.27
2022-11-14T20:22:56.271Z,74.30
2022-11-14T20:25:41.913Z,74.65
2022-11-14T20:28:27.168Z,74.81
2022-11-14T20:31:15.804Z,74.47
2022-11-14T20:34:01.664Z,74.10
2022-11-14T20:37:09.973Z,74.05
2022-11-14T20:39:52.532Z,74.40
2022-11-14T20:42:37.939Z,74.50
2022-11-14T20:45:23.531Z,74.79
2022-11-14T20:48:08.941Z,74.85
2022-11-14T20:51:02.643Z,74.34
2022-11-14T20:53:49.958Z,74.58
2022-11-14T20:56:37.001Z,74.60
2022-11-14T20:59:22.339Z,74.22
2022-11-14T21:02:11.518Z,73.77
2022-11-14T21:04:57.082Z,74.10
2022-11-14T21:07:42.186Z,74.40
2022-11-14T21:10:51.375Z,74.83
2022-11-14T21:15:13.148Z,74.89
2022-11-14T21:18:07.286Z,75.14
2022-11-14T21:21:06.049Z,74.63
2022-11-14T21:23:51.181Z,75.15
2022-11-14T21:26:38.523Z,74.67
2022-11-14T21:29:23.837Z,75.33
2022-11-14T21:32:08.836Z,75.47
2022-11-14T21:34:53.991Z,75.78
2022-11-14T21:37:39.294Z,76.23
2022-11-14T21:40:24.742Z,76.65
2022-11-14T21:43:09.586Z,76.66
2022-11-14T21:45:58.733Z,76.55
2022-11-14T21:48:46.420Z,76.49
2022-11-14T21:51:32.110Z,77.18
2022-11-14T21:54:17.375Z,76.34
2022-11-14T21:57:08.534Z,75.93
2022-11-14T21:59:55.146Z,76.69
2022-11-14T22:02:58.658Z,76.92
2022-11-14T22:05:43.987Z,77.53
2022-11-14T22:08:29.547Z,77.38
2022-11-14T22:11:14.661Z,77.34
2022-11-14T22:14:00.017Z,77.24
2022-11-14T22:16:44.991Z,77.54
2022-11-14T22:19:30.653Z,78.00
2022-11-14T22:22:15.864Z,77.78
2022-11-14T22:25:01.120Z,77.05
2022-11-14T22:27:46.613Z,77.08
2022-11-14T22:30:31.562Z,76.78
2022-11-14T22:33:17.092Z,76.87
2022-11-14T22:36:07.475Z,76.77
2022-11-14T22:38:54.427Z,77.31
2022-11-14T22:41:39.892Z,77.48
2022-11-14T22:44:24.985Z,77.32
2022-11-14T22:47:10.395Z,76.89
2022-11-14T22:49:55.779Z,76.77
2022-11-14T22:52:40.686Z,76.92
2022-11-14T22:55:26.237Z,77.69
2022-11-14T22:58:11.546Z,77.93
2022-11-14T23:00:56.783Z,77.78
2022-11-14T23:03:42.435Z,77.37
2022-11-14T23:06:28.980Z,77.89
2022-11-14T23:09:14.722Z,77.93
2022-11-14T23:11:59.899Z,78.25
2022-11-14T23:14:45.135Z,78.83
2022-11-14T23:17:30.500Z,77.85
2022-11-14T23:20:16.881Z,78.00
2022-11-14T23:23:03.487Z,78.28
2022-11-14T23:25:48.775Z,78.73
2022-11-14T23:28:34.973Z,78.57
2022-11-14T23:31:20.653Z,78.92
2022-11-14T23:34:06.111Z,78.83
2022-11-14T23:36:51.232Z,78.35
2022-11-14T23:39:36.276Z,78.09
2022-11-14T23:42:21.561Z,77.64
2022-11-14T23:45:07.238Z,78.19
2022-11-14T23:47:52.742Z,78.56
2022-11-14T23:50:38.497Z,78.24
2022-11-14T23:53:24.357Z,77.55
2022-11-14T23:56:13.472Z,78.30
2022-11-14T23:58:58.922Z,78.80
